Data for 12/27/2016

Time Sea-Level Adjusted Pressure Absolute Pressure Temperature Relative Humidity Dew Point   
(mb) (inHg) (mb) (inHg) (C) (F) (%) (C) (F)
00:05 1020 30.12 850 25.1 -11.9 10.6 72 -16 3.1
00:10 1020 30.12 850 25.1 -11.7 11 73 -15.7 3.8
00:15 1020 30.12 849 25.07 -11.7 11 73 -15.5 4.1
00:20 1020 30.12 849 25.07 -12.2 10.1 74 -15.8 3.5
00:25 1020 30.12 849 25.07 -12.3 9.8 75 -15.8 3.5
00:30 1020 30.12 849 25.07 -12.4 9.7 75 -16 3.2
00:35 1020 30.12 849 25.07 -12.5 9.5 75 -16.1 3.1
00:40 1020 30.12 849 25.07 -12.3 9.8 74 -16 3.2
00:45 1020 30.12 849 25.07 -12 10.4 72 -16 3.2
00:50 1019 30.09 849 25.07 -12.2 10 74 -16 3.2
00:55 1019 30.09 848 25.04 -12.8 9 75 -16.3 2.7
01:00 1019 30.09 848 25.04 -13.1 8.5 77 -16.3 2.6
01:05 1019 30.09 848 25.04 -12.3 9.9 71 -16.4 2.4
01:10 1019 30.09 848 25.04 -12.1 10.2 69 -16.7 1.9
01:15 1019 30.09 848 25.04 -11.9 10.6 68 -16.7 1.9
01:20 1019 30.09 848 25.04 -12 10.4 68 -16.8 1.8
01:25 1019 30.09 848 25.04 -12.1 10.3 68 -16.8 1.8
01:30 1019 30.09 848 25.04 -11.7 11 68 -16.5 2.3
01:35 1019 30.09 848 25.04 -11.2 11.9 66 -16.2 2.8
01:40 1019 30.09 848 25.04 -11 12.2 67 -16 3.1
01:45 1019 30.09 848 25.04 -10.8 12.5 66 -16.1 3.1
01:50 1019 30.09 848 25.04 -11 12.2 66 -16.2 2.8
01:55 1019 30.09 848 25.04 -10.6 13 65 -16 3.2
02:00 1019 30.09 848 25.04 -10.4 13.3 67 -15.4 4.3
02:05 1019 30.09 848 25.04 -10.6 12.9 71 -15 5
02:10 1019 30.09 848 25.04 -10.6 13 71 -14.8 5.3
02:15 1019 30.09 848 25.04 -10.6 13 71 -14.9 5.2
02:20 1019 30.09 848 25.04 -10.6 12.9 71 -14.9 5.1
02:25 1019 30.09 848 25.04 -10.7 12.8 71 -14.9 5.1
02:30 1019 30.09 848 25.04 -10.4 13.2 69 -15.1 4.8
02:35 1018 30.06 847 25.01 -10.1 13.9 66 -15.2 4.6
02:40 1018 30.06 847 25.01 -9.6 14.7 65 -15.1 4.8
02:45 1018 30.06 847 25.01 -9.7 14.5 67 -14.7 5.5
02:50 1018 30.06 847 25.01 -10.9 12.4 72 -15 5.1
02:55 1018 30.06 847 25.01 -11 12.1 73 -14.9 5.1
03:00 1018 30.06 847 25.01 -11.1 12 72 -15.2 4.7
03:05 1018 30.06 847 25.01 -11 12.1 73 -15 4.9
03:10 1018 30.06 847 25.01 -10.8 12.5 70 -15.4 4.3
03:15 1018 30.06 847 25.01 -10.2 13.7 67 -15.2 4.6
03:20 1018 30.06 847 25.01 -9.9 14.2 66 -15.1 4.8
03:25 1018 30.06 847 25.01 -9.7 14.6 64 -15.2 4.6
03:30 1018 30.06 847 25.01 -9.5 14.9 66 -14.8 5.4
03:35 1018 30.06 847 25.01 -9.5 15 66 -14.8 5.4
03:40 1018 30.06 847 25.01 -9.2 15.5 65 -14.6 5.7
03:45 1018 30.06 847 25.01 -9.1 15.6 64 -14.7 5.6
03:50 1018 30.06 847 25.01 -9.1 15.6 65 -14.6 5.7
03:55 1017 30.03 847 25.01 -8.9 15.9 64 -14.6 5.6
04:00 1017 30.03 847 25.01 -8.8 16.2 64 -14.5 6
04:05 1017 30.03 846 24.98 -8.7 16.4 64 -14.3 6.2
04:10 1017 30.03 847 25.01 -8.5 16.8 63 -14.4 6.1
04:15 1017 30.03 847 25.01 -8.3 17 61 -14.5 6
04:20 1017 30.03 847 25.01 -8.2 17.3 60 -14.5 5.8
04:25 1017 30.03 846 24.98 -8.2 17.3 61 -14.5 6
04:30 1017 30.03 846 24.98 -8.3 17 62 -14.3 6.2
04:35 1017 30.03 846 24.98 -8.1 17.3 61 -14.3 6.3
04:40 1017 30.03 846 24.98 -8.1 17.4 62 -14.2 6.5
04:45 1017 30.03 846 24.98 -8.2 17.2 63 -14.1 6.6
04:50 1017 30.03 846 24.98 -8.2 17.2 62 -14.3 6.3
04:55 1017 30.03 846 24.98 -8.2 17.3 63 -14.1 6.6
05:00 1017 30.03 846 24.98 -8.1 17.4 64 -13.9 7.1
05:05 1017 30.03 846 24.98 -8 17.5 64 -13.7 7.4
05:10 1017 30.03 846 24.98 -8.1 17.5 63 -13.9 7
05:15 1017 30.03 846 24.98 -8.1 17.4 67 -13.3 8.1
05:20 1017 30.03 846 24.98 -8.2 17.2 67 -13.4 7.9
05:25 1017 30.03 846 24.98 -8.2 17.3 67 -13.2 8.2
05:30 1017 30.03 846 24.98 -8.3 17.1 69 -13 8.7
05:35 1017 30.03 846 24.98 -8.3 17 70 -12.9 8.8
05:40 1017 30.03 846 24.98 -8.5 16.7 73 -12.5 9.4
05:45 1017 30.03 846 24.98 -8.8 16.1 76 -12.3 9.8
05:50 1017 30.03 846 24.98 -8.8 16.1 77 -12.2 10
05:55 1016 30 846 24.98 -8.9 16 75 -12.5 9.5
06:00 1016 30 846 24.98 -8.4 16.9 67 -13.6 7.6
06:05 1016 30 845 24.95 -7.9 17.7 65 -13.4 7.9
06:10 1016 30 845 24.95 -7.9 17.7 71 -12.4 9.8
06:15 1016 30 845 24.95 -8.1 17.4 63 -13.9 6.9
06:20 1016 30 845 24.95 -7.9 17.7 65 -13.4 7.9
06:25 1016 30 845 24.95 -8.1 17.5 68 -12.9 8.8
06:30 1016 30 845 24.95 -7.7 18.2 64 -13.3 8
06:35 1016 30 845 24.95 -7.4 18.7 65 -13 8.7
06:40 1016 30 845 24.95 -7.5 18.5 66 -12.9 8.8
06:45 1016 30 845 24.95 -7.7 18.2 63 -13.5 7.8
06:50 1016 30 845 24.95 -7.2 19.1 55 -14.7 5.5
06:55 1016 30 845 24.95 -6.8 19.7 61 -13.1 8.4
07:00 1016 30 845 24.95 -7.4 18.7 62 -13.6 7.6
07:05 1016 30 845 24.95 -7.2 19 59 -13.9 7.1
07:10 1016 30 845 24.95 -6.9 19.5 59 -13.6 7.6
07:15 1016 30 845 24.95 -6.8 19.8 60 -13.2 8.2
07:20 1016 30 846 24.98 -6.8 19.8 62 -12.9 8.9
07:25 1016 30 845 24.95 -6.9 19.6 63 -12.8 9
07:30 1016 30 845 24.95 -7.2 19.1 67 -12.2 10
07:35 1016 30 845 24.95 -7.1 19.3 61 -13.4 7.9
07:40 1016 30 845 24.95 -6.7 19.9 64 -12.5 9.5
07:45 1016 30 845 24.95 -7 19.4 67 -12.2 10
07:50 1016 30 845 24.95 -7.3 18.8 65 -12.8 9
07:55 1016 30 845 24.95 -7.3 18.8 66 -12.6 9.2
08:00 1016 30 845 24.95 -7.1 19.1 62 -13.3 8.1
08:05 1016 30 845 24.95 -6.8 19.7 61 -13.2 8.3
08:10 1016 30 845 24.95 -6.6 20.2 62 -12.7 9.1
08:15 1016 30 845 24.95 -6.4 20.4 60 -12.9 8.8
08:20 1016 30 845 24.95 -5.9 21.3 58 -12.9 8.7
08:25 1016 30 845 24.95 -5.6 21.8 58 -12.7 9.1
08:30 1016 30 845 24.95 -5.4 22.2 58 -12.5 9.4
08:35 1016 30 845 24.95 -5.2 22.7 58 -12.3 9.9
08:40 1016 30 845 24.95 -4.9 23.1 58 -12 10.4
08:45 1016 30 845 24.95 -5.1 22.7 58 -12.2 10.1
08:50 1016 30 845 24.95 -5 23 57 -12.3 9.9
08:55 1016 30 845 24.95 -4.8 23.4 57 -12.1 10.3
09:00 1016 30 845 24.95 -4.7 23.6 56 -12.1 10.3
09:05 1016 30 845 24.95 -4.7 23.5 58 -11.8 10.8
09:10 1016 30 845 24.95 -4.7 23.6 56 -12.2 10.1
09:15 1016 30 845 24.95 -4.5 23.9 59 -11.4 11.5
09:20 1015 29.97 845 24.95 -5.1 22.9 60 -11.8 10.8
09:25 1015 29.97 845 24.95 -5.1 22.8 59 -12 10.4
09:30 1015 29.97 845 24.95 -5.1 22.8 59 -12 10.4
09:35 1015 29.97 845 24.95 -5.1 22.7 59 -12 10.3
09:40 1015 29.97 845 24.95 -4.8 23.3 58 -11.8 10.7
09:45 1015 29.97 844 24.92 -4.7 23.5 60 -11.4 11.6
09:50 1015 29.97 844 24.92 -4.8 23.4 59 -11.5 11.3
09:55 1015 29.97 844 24.92 -4.7 23.5 58 -11.8 10.8
10:00 1015 29.97 844 24.92 -4.6 23.6 57 -11.8 10.7
10:05 1015 29.97 844 24.92 -4.6 23.7 59 -11.5 11.3
10:10 1015 29.97 844 24.92 -4.7 23.6 59 -11.4 11.5
10:15 1015 29.97 844 24.92 -4.9 23.1 62 -11.1 12
10:20 1015 29.97 844 24.92 -4.9 23.2 62 -11.2 11.9
10:25 1015 29.97 844 24.92 -4.9 23.3 63 -10.9 12.3
10:30 1014 29.94 844 24.92 -5.2 22.7 63 -11.2 11.9
10:35 1014 29.94 843 24.89 -5.1 22.9 62 -11.4 11.5
10:40 1014 29.94 843 24.89 -4.8 23.4 60 -11.4 11.5
10:45 1014 29.94 843 24.89 -4.7 23.5 60 -11.3 11.7
10:50 1014 29.94 844 24.92 -4.6 23.7 61 -11.1 12.1
10:55 1014 29.94 844 24.92 -4.5 23.8 62 -10.8 12.5
11:00 1014 29.94 844 24.92 -4.2 24.4 60 -10.9 12.4
11:05 1014 29.94 844 24.92 -3.9 25.1 59 -10.7 12.8
11:10 1014 29.94 844 24.92 -3.6 25.6 57 -10.8 12.5
11:15 1014 29.94 844 24.92 -3.4 25.9 58 -10.4 13.2
11:20 1014 29.94 844 24.92 -3.2 26.2 56 -10.7 12.7
11:25 1014 29.94 843 24.89 -3 26.5 58 -10.3 13.5
11:30 1014 29.94 843 24.89 -2.8 27 58 -9.9 14.2
11:35 1014 29.94 843 24.89 -2.9 26.8 58 -9.9 14.1
11:40 1014 29.94 843 24.89 -3.2 26.3 60 -9.9 14.1
11:45 1014 29.94 843 24.89 -3 26.5 59 -9.9 14.2
11:50 1014 29.94 843 24.89 -3 26.6 58 -10.1 13.8
11:55 1014 29.94 843 24.89 -3.2 26.2 60 -9.9 14.1
12:00 1014 29.94 843 24.89 -3.3 26.1 59 -10.2 13.7
12:05 1014 29.94 843 24.89 -3.3 26 58 -10.4 13.3
12:10 1014 29.94 843 24.89 -3.1 26.5 58 -10.3 13.4
12:15 1014 29.94 843 24.89 -2.9 26.8 57 -10.2 13.6
12:20 1014 29.94 843 24.89 -3 26.7 56 -10.5 13.1
12:25 1014 29.94 843 24.89 -2.9 26.7 57 -10.3 13.4
12:30 1014 29.94 843 24.89 -2.8 27 56 -10.3 13.5
12:35 1013 29.91 843 24.89 -2.9 26.8 56 -10.5 13.1
12:40 1013 29.91 842 24.86 -2.7 27.1 58 -9.9 14.1
12:45 1013 29.91 842 24.86 -2.7 27.2 57 -10.1 13.9
12:50 1013 29.91 842 24.86 -3 26.7 57 -10.3 13.5
12:55 1013 29.91 842 24.86 -3.2 26.3 58 -10.3 13.5
13:00 1013 29.91 842 24.86 -3 26.6 56 -10.6 13
13:05 1013 29.91 842 24.86 -2.7 27.1 56 -10.4 13.4
13:10 1012 29.88 842 24.86 -2.7 27.1 58 -9.9 14.3
13:15 1012 29.88 841 24.83 -2.8 27 59 -9.8 14.4
13:20 1012 29.88 841 24.83 -2.8 27 60 -9.4 15.1
13:25 1012 29.88 841 24.83 -2.8 26.9 62 -9.2 15.5
13:30 1012 29.88 841 24.83 -2.8 27 62 -9.1 15.6
13:35 1012 29.88 841 24.83 -2.8 27 62 -9.1 15.6
13:40 1012 29.88 841 24.83 -2.6 27.3 61 -9.1 15.6
13:45 1012 29.88 841 24.83 -2.6 27.4 60 -9.2 15.4
13:50 1012 29.88 841 24.83 -2.4 27.7 60 -9.1 15.6
13:55 1012 29.88 841 24.83 -2.3 27.8 60 -9 15.8
14:00 1012 29.88 841 24.83 -2.2 28.1 59 -9.1 15.5
14:05 1012 29.88 841 24.83 -2.2 28.1 60 -8.9 16
14:10 1012 29.88 841 24.83 -2.2 28 59 -9.2 15.4
14:15 1012 29.88 841 24.83 -2.3 27.9 58 -9.4 15.1
14:20 1012 29.88 841 24.83 -2.3 27.8 59 -9.4 15.1
14:25 1012 29.88 841 24.83 -2.3 27.8 59 -9.3 15.2
14:30 1012 29.88 841 24.83 -2.2 28.1 58 -9.4 15.1
14:35 1012 29.88 841 24.83 -2.1 28.2 59 -9.1 15.7
14:40 1012 29.88 841 24.83 -2 28.3 58 -9.2 15.4
14:45 1012 29.88 841 24.83 -2 28.4 60 -8.8 16.1
14:50 1012 29.88 841 24.83 -1.9 28.6 59 -8.9 15.9
14:55 1012 29.88 841 24.83 -2 28.5 58 -9.2 15.5
15:00 1012 29.88 841 24.83 -1.8 28.8 60 -8.7 16.4
15:05 1012 29.88 841 24.83 -1.8 28.8 58 -9 15.9
15:10 1011 29.85 841 24.83 -2 28.4 59 -8.9 16
15:15 1011 29.85 841 24.83 -2.1 28.3 59 -9.1 15.6
15:20 1011 29.85 841 24.83 -2.2 28.1 60 -9 15.9
15:25 1011 29.85 841 24.83 -2.3 27.9 61 -8.9 16
15:30 1011 29.85 841 24.83 -2.4 27.6 61 -9 15.7
15:35 1011 29.85 841 24.83 -2.5 27.6 61 -8.9 16
15:40 1011 29.85 840 24.81 -2.5 27.4 61 -9 15.8
15:45 1011 29.85 841 24.83 -2.6 27.3 59 -9.5 14.9
15:50 1011 29.85 840 24.81 -2.6 27.3 58 -9.7 14.5
15:55 1011 29.85 840 24.81 -2.6 27.4 60 -9.3 15.3
16:00 1011 29.85 840 24.81 -2.6 27.4 60 -9.3 15.2
16:05 1011 29.85 840 24.81 -2.6 27.3 59 -9.6 14.8
16:10 1011 29.85 840 24.81 -2.5 27.5 60 -9.3 15.3
16:15 1011 29.85 840 24.81 -2.6 27.4 61 -9 15.8
16:20 1011 29.85 840 24.81 -2.4 27.7 59 -9.3 15.2
16:25 1011 29.85 840 24.81 -2 28.4 59 -9 15.9
16:30 1011 29.85 840 24.81 -1.5 29.2 59 -8.5 16.8
16:35 1011 29.85 841 24.83 -1.4 29.5 59 -8.4 16.9
16:40 1011 29.85 841 24.83 -1.3 29.6 59 -8.3 17
16:45 1012 29.88 841 24.83 -1.3 29.7 58 -8.6 16.5
16:50 1012 29.88 841 24.83 -1.4 29.4 58 -8.7 16.3
16:55 1012 29.88 841 24.83 -1.7 29 59 -8.7 16.3
17:00 1012 29.88 841 24.83 -2.1 28.3 61 -8.6 16.6
17:05 1012 29.88 841 24.83 -2.4 27.7 63 -8.5 16.6
17:10 1012 29.88 841 24.83 -2.6 27.3 63 -8.7 16.3
17:15 1012 29.88 841 24.83 -2.5 27.5 64 -8.5 16.8
17:20 1012 29.88 841 24.83 -2.5 27.4 62 -8.9 16
17:25 1012 29.88 841 24.83 -2.2 28 63 -8.3 17
17:30 1012 29.88 841 24.83 -2.4 27.7 64 -8.3 17
17:35 1012 29.88 841 24.83 -2.4 27.6 64 -8.3 17
17:40 1012 29.88 841 24.83 -2.4 27.8 64 -8.2 17.2
17:45 1012 29.88 841 24.83 -2.2 28 64 -8.1 17.4
17:50 1012 29.88 841 24.83 -2.4 27.7 66 -8 17.6
17:55 1012 29.88 841 24.83 -2.6 27.4 67 -7.8 17.9
18:00 1012 29.88 842 24.86 -2.8 26.9 68 -7.9 17.8
18:05 1013 29.91 842 24.86 -2.7 27.1 68 -7.8 17.9
18:10 1013 29.91 842 24.86 -2.6 27.3 68 -7.7 18.2
18:15 1013 29.91 842 24.86 -2.2 28 66 -7.8 18
18:20 1013 29.91 842 24.86 -1.9 28.6 65 -7.6 18.3
18:25 1013 29.91 842 24.86 -1.8 28.7 66 -7.4 18.6
18:30 1013 29.91 842 24.86 -2 28.4 66 -7.4 18.6
18:35 1013 29.91 842 24.86 -2.3 27.9 67 -7.5 18.4
18:40 1013 29.91 842 24.86 -2.6 27.4 68 -7.7 18.1
18:45 1013 29.91 842 24.86 -2.6 27.3 69 -7.6 18.3
18:50 1013 29.91 842 24.86 -2.7 27.1 69 -7.6 18.3
18:55 1013 29.91 842 24.86 -2.8 27 68 -7.8 18
19:00 1013 29.91 842 24.86 -2.7 27.1 66 -8.2 17.2
19:05 1013 29.91 842 24.86 -2.6 27.4 65 -8.2 17.2
19:10 1012 29.88 842 24.86 -2.5 27.5 65 -8.1 17.4
19:15 1012 29.88 841 24.83 -2.3 27.8 64 -8.2 17.2
19:20 1012 29.88 841 24.83 -2.3 27.9 63 -8.4 16.9
19:25 1012 29.88 841 24.83 -2.4 27.8 64 -8.3 17
19:30 1012 29.88 842 24.86 -2.5 27.5 63 -8.7 16.4
19:35 1012 29.88 842 24.86 -2.6 27.3 63 -8.7 16.3
19:40 1012 29.88 842 24.86 -2.7 27.1 63 -8.9 16
19:45 1012 29.88 842 24.86 -2.8 27 62 -9.2 15.5
19:50 1013 29.91 842 24.86 -2.8 26.9 61 -9.4 15.1
19:55 1013 29.91 842 24.86 -2.9 26.9 60 -9.5 14.9
20:00 1013 29.91 842 24.86 -2.9 26.7 60 -9.6 14.8
20:05 1013 29.91 842 24.86 -3 26.5 60 -9.8 14.3
20:10 1013 29.91 842 24.86 -3.1 26.4 59 -10.1 13.9
20:15 1013 29.91 842 24.86 -3.2 26.3 57 -10.4 13.2
20:20 1013 29.91 842 24.86 -3.1 26.4 57 -10.4 13.2
20:25 1013 29.91 842 24.86 -3.1 26.4 59 -10.1 13.8
20:30 1013 29.91 842 24.86 -3.3 26 63 -9.4 15.1
20:35 1013 29.91 842 24.86 -3.9 25 65 -9.5 14.8
20:40 1013 29.91 842 24.86 -4.2 24.4 66 -9.7 14.5
20:45 1013 29.91 842 24.86 -3.9 24.9 59 -10.7 12.7
20:50 1013 29.91 843 24.89 -3.1 26.4 55 -10.9 12.5
20:55 1013 29.91 843 24.89 -2.6 27.3 54 -10.6 12.9
21:00 1014 29.94 843 24.89 -2.6 27.4 54 -10.7 12.8
21:05 1014 29.94 843 24.89 -2.7 27.1 56 -10.3 13.4
21:10 1014 29.94 843 24.89 -3.2 26.3 59 -10.1 13.8
21:15 1014 29.94 843 24.89 -3.1 26.4 58 -10.3 13.5
21:20 1014 29.94 843 24.89 -2.8 27 54 -10.9 12.4
21:25 1014 29.94 843 24.89 -2.5 27.5 53 -10.7 12.8
21:30 1014 29.94 843 24.89 -2.5 27.5 54 -10.6 12.9
21:35 1014 29.94 843 24.89 -2.7 27.1 56 -10.4 13.3
21:40 1014 29.94 843 24.89 -3.3 26.1 59 -10.2 13.6
21:45 1014 29.94 843 24.89 -3.7 25.3 61 -10.3 13.5
21:50 1014 29.94 843 24.89 -4 24.9 58 -11.1 12.1
21:55 1014 29.94 843 24.89 -3.2 26.2 52 -11.6 11.1
22:00 1014 29.94 843 24.89 -2.6 27.4 51 -11.4 11.5
22:05 1014 29.94 843 24.89 -2.4 27.7 50 -11.4 11.5
22:10 1014 29.94 843 24.89 -2.5 27.6 50 -11.5 11.3
22:15 1014 29.94 843 24.89 -2.6 27.3 50 -11.6 11.1
22:20 1014 29.94 844 24.92 -2.8 27 51 -11.5 11.3
22:25 1014 29.94 844 24.92 -2.9 26.7 51 -11.7 11
22:30 1014 29.94 844 24.92 -3.1 26.5 50 -12 10.3
22:35 1015 29.97 844 24.92 -2.9 26.7 50 -11.9 10.5
22:40 1015 29.97 844 24.92 -2.8 26.9 49 -12.1 10.2
22:45 1015 29.97 844 24.92 -2.9 26.9 49 -12.2 10.1
22:50 1015 29.97 844 24.92 -3 26.6 50 -12.1 10.1
22:55 1015 29.97 844 24.92 -3.1 26.4 51 -11.9 10.5
23:00 1015 29.97 844 24.92 -3.3 26 51 -12 10.3
23:05 1015 29.97 844 24.92 -3.5 25.8 52 -12 10.4
23:10 1015 29.97 844 24.92 -3.6 25.6 53 -11.8 10.7
23:15 1015 29.97 844 24.92 -3.6 25.5 53 -11.9 10.6
23:20 1015 29.97 844 24.92 -3.6 25.5 52 -12.2 10.1
23:25 1015 29.97 844 24.92 -3.5 25.7 51 -12.2 10
23:30 1015 29.97 845 24.95 -3.5 25.7 51 -12.2 10.1
23:35 1015 29.97 845 24.95 -3.6 25.6 50 -12.5 9.5
23:40 1015 29.97 845 24.95 -3.6 25.6 50 -12.5 9.5
23:45 1016 30 845 24.95 -3.7 25.4 50 -12.7 9.2
23:50 1016 30 845 24.95 -3.8 25.2 50 -12.8 9
23:55 1016 30 845 24.95 -3.7 25.3 50 -12.7 9.1
24:00 1016 30 845 24.95 -3.6 25.6 48 -12.9 8.7